Time;durP1;ratioP1;P1;durP2;ratioP2;P2;SDS_P1;SDS_P2;PMS_P1;PMS_P2;Temp;Humidity;BMP_temperature;BMP_pressure;BME280_temperature;BME280_humidity;BME280_pressure;Samples;Min_cycle;Max_cycle;Signal;HPM_P1;HPM_P2
2023/05/30 00:02:18;;;;;;;;;;;;;;;22.06;45.03;101782.69;5005221;28;4164;-73
2023/05/30 00:04:44;;;;;;;;;;;;;;;22.08;44.87;101790.69;5007044;28;4245;-73
2023/05/30 00:07:11;;;;;;;;;;;;;;;22.06;45.00;101782.69;5010118;28;4088;-73
2023/05/30 00:09:37;;;;;;;;;;;;;;;22.06;44.95;101785.59;5004757;28;4097;-73
2023/05/30 00:12:04;;;;;;;;;;;;;;;22.06;44.92;101791.34;5005600;28;4216;-73
2023/05/30 00:14:30;;;;;;;;;;;;;;;22.05;45.14;101784.06;5002434;28;4165;-72
2023/05/30 00:16:58;;;;;;;;;;;;;;;22.05;45.02;101789.84;4998729;28;4061;-72
2023/05/30 00:19:24;;;;;;;;;;;;;;;22.04;45.13;101791.25;5000614;28;3934;-74
2023/05/30 00:21:52;;;;;;;;;;;;;;;22.04;44.85;101791.25;5004489;28;4017;-73
2023/05/30 00:24:19;;;;;;;;;;;;;;;22.04;45.25;101793.38;5002288;28;4043;-73
2023/05/30 00:26:45;;;;;;;;;;;;;;;22.03;44.95;101792.63;5004100;28;4096;-73
2023/05/30 00:29:12;;;;;;;;;;;;;;;22.04;45.26;101804.91;5000526;28;4017;-72
2023/05/30 00:31:38;;;;;;;;;;;;;;;22.03;45.08;101801.28;5009121;28;3905;-73
2023/05/30 00:34:05;;;;;;;;;;;;;;;22.03;45.06;101809.91;5000020;28;4081;-73
2023/05/30 00:36:31;;;;;;;;;;;;;;;22.03;45.05;101801.28;5011953;28;4128;-73
2023/05/30 00:38:58;;;;;;;;;;;;;;;22.02;45.20;101802.66;4998630;28;4134;-73
2023/05/30 00:41:25;;;;;;;;;;;;;;;22.02;45.34;101808.44;4998430;28;4166;-73
2023/05/30 00:43:51;;;;;;;;;;;;;;;22.01;45.06;101792.50;5001778;28;4075;-74
2023/05/30 00:46:20;;;;;;;;;;;;;;;22.02;45.31;101799.03;5010409;28;4099;-73
2023/05/30 00:48:46;;;;;;;;;;;;;;;22.00;45.07;101805.44;5001437;28;4312;-73
2023/05/30 00:51:13;;;;;;;;;;;;;;;22.00;45.12;101802.56;4999734;28;4079;-73
2023/05/30 00:53:40;;;;;;;;;;;;;;;21.99;44.95;101801.06;5004425;28;4031;-73
2023/05/30 00:56:07;;;;;;;;;;;;;;;21.99;45.12;101801.06;5004989;28;4072;-73
2023/05/30 00:58:33;;;;;;;;;;;;;;;21.99;45.23;101798.19;4995536;28;4294;-73
2023/05/30 01:01:01;;;;;;;;;;;;;;;21.99;45.41;101803.94;5000881;28;4135;-73
2023/05/30 01:03:32;;;;;;;;;;;;;;;21.98;45.10;101805.31;5001480;28;4008;-74
2023/05/30 01:06:06;;;;;;;;;;;;;;;21.98;45.09;101802.44;5002578;28;4029;-73
2023/05/30 01:08:33;;;;;;;;;;;;;;;21.98;45.16;101805.31;4996962;28;3969;-73
2023/05/30 01:11:08;;;;;;;;;;;;;;;21.97;45.14;101800.94;4999050;28;4145;-73
2023/05/30 01:13:39;;;;;;;;;;;;;;;21.97;45.25;101800.94;4989321;28;4073;-73
2023/05/30 01:16:08;;;;;;;;;;;;;;;21.96;45.33;101805.22;5003338;28;4293;-73
2023/05/30 01:18:38;;;;;;;;;;;;;;;21.96;45.31;101805.22;5001645;28;4199;-73
2023/05/30 01:21:15;;;;;;;;;;;;;;;21.95;45.20;101810.22;5006562;28;4043;-73
2023/05/30 01:23:43;;;;;;;;;;;;;;;21.95;45.13;101809.50;5002163;28;3954;-73
2023/05/30 01:26:28;;;;;;;;;;;;;;;21.95;45.51;101812.38;5005655;28;4993;-73
2023/05/30 01:28:56;;;;;;;;;;;;;;;21.94;45.23;101816.63;5007952;28;4058;-73
2023/05/30 01:31:23;;;;;;;;;;;;;;;21.94;45.44;101808.75;5001751;28;4403;-73
2023/05/30 01:33:49;;;;;;;;;;;;;;;21.94;45.22;101816.63;5006183;28;3957;-73
2023/05/30 01:36:19;;;;;;;;;;;;;;;21.94;45.47;101807.97;5010507;28;4427;-73
2023/05/30 01:38:46;;;;;;;;;;;;;;;21.93;45.19;101818.78;5006324;28;3923;-73
2023/05/30 01:41:13;;;;;;;;;;;;;;;21.92;45.36;101810.75;5008658;28;4258;-73
2023/05/30 01:43:46;;;;;;;;;;;;;;;21.92;45.24;101817.28;5002715;28;4052;-74
2023/05/30 01:46:32;;;;;;;;;;;;;;;21.92;45.10;101817.28;5009331;28;4428;-73
2023/05/30 01:49:03;;;;;;;;;;;;;;;21.92;45.12;101810.75;5003037;28;4082;-73
2023/05/30 01:51:34;;;;;;;;;;;;;;;21.91;45.24;101812.88;5004285;28;4356;-73
2023/05/30 01:54:02;;;;;;;;;;;;;;;21.90;45.55;101814.28;4998214;28;4106;-73
2023/05/30 01:56:28;;;;;;;;;;;;;;;21.90;45.30;101813.53;5000801;28;4098;-74
2023/05/30 01:58:55;;;;;;;;;;;;;;;21.89;45.47;101812.78;5008723;28;4067;-74
2023/05/30 02:01:23;;;;;;;;;;;;;;;21.91;45.51;101815.03;4994064;28;4099;-74
2023/05/30 02:03:49;;;;;;;;;;;;;;;21.89;45.27;101823.56;4993877;28;4121;-73
2023/05/30 02:06:18;;;;;;;;;;;;;;;21.89;45.37;101823.56;5002810;28;4230;-74
2023/05/30 02:08:47;;;;;;;;;;;;;;;21.88;45.35;101816.31;5011083;28;4099;-73
2023/05/30 02:11:14;;;;;;;;;;;;;;;21.88;45.52;101813.44;5012831;28;3882;-73
2023/05/30 02:13:40;;;;;;;;;;;;;;;21.88;45.36;101810.53;5004836;28;3946;-74
2023/05/30 02:16:07;;;;;;;;;;;;;;;21.88;45.21;101813.44;5004898;28;3985;-73
2023/05/30 02:18:34;;;;;;;;;;;;;;;21.86;45.31;101816.19;5013990;28;4196;-74
2023/05/30 02:21:01;;;;;;;;;;;;;;;21.87;45.44;101809.03;5006011;28;4057;-72
2023/05/30 02:23:27;;;;;;;;;;;;;;;21.86;45.27;101813.31;5010395;28;4076;-73
2023/05/30 02:25:54;;;;;;;;;;;;;;;21.84;45.29;101816.81;5010887;28;4123;-73
2023/05/30 02:28:20;;;;;;;;;;;;;;;21.84;45.33;101819.72;5003412;28;4046;-73
2023/05/30 02:30:47;;;;;;;;;;;;;;;21.83;45.46;101821.09;5004387;28;4029;-73
2023/05/30 02:33:13;;;;;;;;;;;;;;;21.83;45.54;101815.34;5012151;28;4258;-73
2023/05/30 02:35:40;;;;;;;;;;;;;;;21.83;45.36;101808.81;5010740;28;4036;-74
2023/05/30 02:38:06;;;;;;;;;;;;;;;21.82;45.33;101813.81;5008653;28;3936;-74
2023/05/30 02:40:34;;;;;;;;;;;;;;;21.82;45.52;101807.31;5012768;28;4045;-73
2023/05/30 02:43:01;;;;;;;;;;;;;;;21.82;45.32;101818.84;5005558;28;4341;-73
2023/05/30 02:45:38;;;;;;;;;;;;;;;21.80;45.57;101815.84;5009508;28;4352;-74
2023/05/30 02:48:06;;;;;;;;;;;;;;;21.81;45.47;101815.22;5005916;28;4700;-73
2023/05/30 02:50:33;;;;;;;;;;;;;;;21.81;45.40;101817.38;5001739;28;4107;-73
2023/05/30 02:53:01;;;;;;;;;;;;;;;21.80;45.56;101822.34;5010314;28;5109;-72
2023/05/30 02:55:28;;;;;;;;;;;;;;;21.80;45.68;101822.34;5005009;28;4092;-73
2023/05/30 02:58:32;;;;;;;;;;;;;;;21.79;45.37;101828.78;5000918;28;4053;-73
2023/05/30 03:01:07;;;;;;;;;;;;;;;21.78;45.37;101833.78;5006787;28;4063;-73
2023/05/30 03:03:37;;;;;;;;;;;;;;;21.78;45.56;101830.16;5006764;28;4105;-74
2023/05/30 03:06:14;;;;;;;;;;;;;;;21.79;45.55;101831.66;5006946;28;4030;-74
2023/05/30 03:09:01;;;;;;;;;;;;;;;21.78;45.60;101830.16;5013243;28;4009;-73
2023/05/30 03:11:27;;;;;;;;;;;;;;;21.77;45.36;101831.53;5018607;28;3920;-73
2023/05/30 03:13:54;;;;;;;;;;;;;;;21.75;45.42;101838.69;5013036;28;4150;-73
2023/05/30 03:16:21;;;;;;;;;;;;;;;21.77;45.51;101840.19;4998264;28;4177;-73
2023/05/30 03:18:49;;;;;;;;;;;;;;;21.75;45.32;101847.34;4992640;28;4237;-73
2023/05/30 03:21:16;;;;;;;;;;;;;;;21.77;45.54;101843.09;5007877;28;4073;-73
2023/05/30 03:23:42;;;;;;;;;;;;;;;21.76;45.51;101848.06;4991218;28;4121;-73
2023/05/30 03:26:09;;;;;;;;;;;;;;;21.76;45.39;101845.19;5008436;28;4109;-73
2023/05/30 03:28:35;;;;;;;;;;;;;;;21.75;45.37;101850.22;5007056;28;4141;-73
2023/05/30 03:31:12;;;;;;;;;;;;;;;21.74;45.53;101854.50;5001645;28;4054;-73
2023/05/30 03:33:39;;;;;;;;;;;;;;;21.74;45.44;101854.50;5010072;28;4125;-73
2023/05/30 03:36:07;;;;;;;;;;;;;;;21.73;45.57;101847.22;5009488;28;4097;-73
2023/05/30 03:38:34;;;;;;;;;;;;;;;21.72;45.42;101860.13;5000456;28;4107;-73
2023/05/30 03:41:01;;;;;;;;;;;;;;;21.73;45.71;101852.97;5001314;28;4223;-73
2023/05/30 03:43:28;;;;;;;;;;;;;;;21.73;45.59;101846.47;5000827;28;4024;-73
2023/05/30 03:45:55;;;;;;;;;;;;;;;21.72;45.38;101856.53;5007538;28;4159;-74
2023/05/30 03:48:22;;;;;;;;;;;;;;;21.71;45.48;101858.63;4995551;28;5315;-73
2023/05/30 03:50:48;;;;;;;;;;;;;;;21.71;45.51;101867.28;4999609;28;3917;-73
2023/05/30 03:53:15;;;;;;;;;;;;;;;21.70;45.51;101860.03;5008330;28;4018;-73
2023/05/30 03:55:42;;;;;;;;;;;;;;;21.69;45.52;101858.53;5002660;28;3916;-72
2023/05/30 03:58:08;;;;;;;;;;;;;;;21.68;45.77;101865.66;5002053;28;4166;-73
2023/05/30 04:00:35;;;;;;;;;;;;;;;21.70;45.55;101874.44;4997352;28;4163;-73
2023/05/30 04:03:01;;;;;;;;;;;;;;;21.68;45.76;101868.56;5006255;28;4006;-72
2023/05/30 04:05:28;;;;;;;;;;;;;;;21.68;45.80;101871.44;4986884;28;4104;-73
2023/05/30 04:07:54;;;;;;;;;;;;;;;21.68;45.63;101880.09;5005146;28;4046;-73
2023/05/30 04:10:21;;;;;;;;;;;;;;;20.96;42.16;101874.38;4999043;28;4044;-75
2023/05/30 04:12:50;;;;;;;;;;;;;;;20.00;39.86;101874.97;4996883;28;4244;-72
2023/05/30 04:15:17;;;;;;;;;;;;;;;20.24;39.77;101879.38;4994220;28;4156;-71
2023/05/30 04:17:43;;;;;;;;;;;;;;;20.77;39.20;101878.31;5005568;28;4249;-72
2023/05/30 04:20:11;;;;;;;;;;;;;;;21.08;39.38;101875.88;5001742;28;4099;-72
2023/05/30 04:22:40;;;;;;;;;;;;;;;21.24;39.52;101878.97;5010205;28;4394;-71
2023/05/30 04:25:08;;;;;;;;;;;;;;;21.31;39.93;101871.44;4999806;28;4049;-71
2023/05/30 04:27:36;;;;;;;;;;;;;;;21.37;40.34;101873.91;5001986;28;4113;-71
2023/05/30 04:30:04;;;;;;;;;;;;;;;21.41;40.46;101885.72;4998149;28;4075;-71
2023/05/30 04:32:33;;;;;;;;;;;;;;;21.44;40.69;101882.34;5003601;28;4058;-71
2023/05/30 04:35:01;;;;;;;;;;;;;;;21.45;40.85;101885.97;5004783;28;3903;-72
2023/05/30 04:37:27;;;;;;;;;;;;;;;21.47;40.86;101886.06;5009948;28;4040;-71
2023/05/30 04:39:58;;;;;;;;;;;;;;;21.48;40.80;101890.44;4999367;28;4163;-71
2023/05/30 04:42:28;;;;;;;;;;;;;;;21.49;41.13;101886.94;5004831;28;5425;-71
2023/05/30 04:44:54;;;;;;;;;;;;;;;21.51;41.23;101889.19;4984456;28;4063;-73
2023/05/30 04:47:24;;;;;;;;;;;;;;;21.55;42.05;101889.41;4994927;28;4182;-68
2023/05/30 04:49:53;;;;;;;;;;;;;;;21.57;41.97;101886.66;4988484;28;4080;-69
2023/05/30 04:52:20;;;;;;;;;;;;;;;21.54;42.09;101893.69;5002730;28;5265;-69
2023/05/30 04:54:46;;;;;;;;;;;;;;;21.55;42.33;101895.19;5009682;28;4043;-69
2023/05/30 04:57:13;;;;;;;;;;;;;;;21.52;42.35;101897.19;5012087;28;4044;-69
2023/05/30 04:59:41;;;;;;;;;;;;;;;21.53;42.34;101897.94;5011359;28;4018;-69
2023/05/30 05:02:08;;;;;;;;;;;;;;;21.55;42.46;101895.19;5007357;28;4041;-69
2023/05/30 05:04:35;;;;;;;;;;;;;;;21.56;42.60;101902.47;4999457;28;4077;-69
2023/05/30 05:07:01;;;;;;;;;;;;;;;21.57;42.72;101898.19;5010056;28;4139;-69
2023/05/30 05:09:28;;;;;;;;;;;;;;;21.58;42.54;101893.16;5012582;28;4238;-69
2023/05/30 05:11:54;;;;;;;;;;;;;;;21.58;42.89;101899.69;5009672;28;4398;-69
2023/05/30 05:14:20;;;;;;;;;;;;;;;21.59;42.82;101894.66;5009086;28;4103;-69
2023/05/30 05:16:47;;;;;;;;;;;;;;;21.59;43.09;101897.56;5013584;28;4084;-69
2023/05/30 05:19:14;;;;;;;;;;;;;;;21.59;43.05;101900.44;5011541;28;4224;-69
2023/05/30 05:21:40;;;;;;;;;;;;;;;21.59;43.29;101906.94;5006756;28;4024;-69
2023/05/30 05:24:09;;;;;;;;;;;;;;;21.59;43.39;101903.31;5012893;28;4365;-69
2023/05/30 05:26:36;;;;;;;;;;;;;;;21.59;43.58;101906.94;5013779;28;3953;-69
2023/05/30 05:29:02;;;;;;;;;;;;;;;21.59;43.53;101912.72;5015937;28;4144;-69
2023/05/30 05:31:32;;;;;;;;;;;;;;;21.60;43.64;101907.69;5012884;28;4192;-69
2023/05/30 05:33:59;;;;;;;;;;;;;;;21.58;43.72;101917.00;5004786;28;4149;-69
2023/05/30 05:36:25;;;;;;;;;;;;;;;21.59;43.67;101917.72;5012062;28;5258;-68
2023/05/30 05:38:52;;;;;;;;;;;;;;;21.55;44.04;101912.47;5005008;28;4198;-69
2023/05/30 05:41:18;;;;;;;;;;;;;;;21.59;44.00;101906.19;5010401;28;4351;-69
2023/05/30 05:43:44;;;;;;;;;;;;;;;21.60;43.96;101908.47;5006752;28;4402;-69
2023/05/30 05:46:11;;;;;;;;;;;;;;;21.60;44.16;101913.44;5008473;28;4170;-69
2023/05/30 05:48:38;;;;;;;;;;;;;;;21.60;44.05;101914.22;5001853;28;4180;-69
2023/05/30 05:51:04;;;;;;;;;;;;;;;21.60;44.19;101914.22;5000452;28;4174;-69
2023/05/30 05:53:31;;;;;;;;;;;;;;;21.60;44.28;101911.34;5011192;28;4122;-69
2023/05/30 05:56:00;;;;;;;;;;;;;;;21.61;44.36;101909.19;5013908;28;4213;-69
2023/05/30 05:58:26;;;;;;;;;;;;;;;21.61;44.19;101912.84;5013669;28;4076;-69
2023/05/30 06:00:53;;;;;;;;;;;;;;;21.61;44.43;101918.59;5008709;28;4158;-69
2023/05/30 06:03:19;;;;;;;;;;;;;;;21.61;44.30;101909.19;5005005;28;4014;-69
2023/05/30 06:05:46;;;;;;;;;;;;;;;21.61;44.44;101921.47;5009287;28;4098;-69
2023/05/30 06:08:12;;;;;;;;;;;;;;;21.62;44.46;101916.47;5008090;28;4172;-69
2023/05/30 06:10:39;;;;;;;;;;;;;;;21.61;44.67;101909.94;5004229;28;4039;-69
2023/05/30 06:13:05;;;;;;;;;;;;;;;21.61;44.66;101920.72;5007753;28;4169;-69
2023/05/30 06:15:31;;;;;;;;;;;;;;;21.62;44.39;101920.09;5005593;28;4821;-69
2023/05/30 06:17:58;;;;;;;;;;;;;;;21.62;44.67;101920.09;5009521;28;4046;-69
2023/05/30 06:20:25;;;;;;;;;;;;;;;21.62;44.82;101920.09;5008799;28;4192;-69
2023/05/30 06:22:51;;;;;;;;;;;;;;;21.62;44.86;101920.09;5006491;28;4489;-69
2023/05/30 06:25:18;;;;;;;;;;;;;;;21.62;44.98;101922.22;5009094;28;4156;-69
2023/05/30 06:27:44;;;;;;;;;;;;;;;21.63;45.03;101923.75;5006010;28;4080;-71
2023/05/30 06:30:11;;;;;;;;;;;;;;;21.61;44.88;101924.38;5005404;28;4137;-66
2023/05/30 06:32:37;;;;;;;;;;;;;;;21.61;45.03;101921.47;5008748;28;4336;-66
2023/05/30 06:35:04;;;;;;;;;;;;;;;21.62;45.01;101928.72;5001737;28;3989;-66
2023/05/30 06:37:30;;;;;;;;;;;;;;;21.63;45.16;101929.50;5007514;28;4116;-67
2023/05/30 06:39:56;;;;;;;;;;;;;;;21.62;45.40;101922.97;5008003;28;4332;-67
2023/05/30 06:42:23;;;;;;;;;;;;;;;21.62;45.03;101925.84;5005620;28;3984;-66
2023/05/30 06:44:49;;;;;;;;;;;;;;;21.62;45.16;101922.97;5006802;28;4179;-66
2023/05/30 06:47:16;;;;;;;;;;;;;;;21.62;45.25;101934.50;5000612;28;4158;-67
2023/05/30 06:49:42;;;;;;;;;;;;;;;21.62;45.17;101922.22;5007639;28;4098;-67
2023/05/30 06:52:08;;;;;;;;;;;;;;;21.62;45.51;101931.63;5005429;28;4190;-67
2023/05/30 06:54:35;;;;;;;;;;;;;;;21.62;45.44;101931.63;5005704;28;4331;-67
2023/05/30 06:57:02;;;;;;;;;;;;;;;21.62;45.45;101934.50;5005045;28;5077;-67
2023/05/30 06:59:29;;;;;;;;;;;;;;;21.61;45.50;101940.91;5008002;28;3966;-66
2023/05/30 07:01:56;;;;;;;;;;;;;;;21.63;45.34;101941.03;5008382;28;4066;-66
2023/05/30 07:04:23;;;;;;;;;;;;;;;21.65;45.36;101944.03;5002471;28;4442;-66
2023/05/30 07:06:49;;;;;;;;;;;;;;;21.64;45.16;101931.72;5004708;28;4123;-64
2023/05/30 07:09:16;;;;;;;;;;;;;;;21.66;45.57;101934.00;5006127;28;4101;-67
2023/05/30 07:11:42;;;;;;;;;;;;;;;21.68;45.42;101934.84;5008109;28;3964;-67
2023/05/30 07:14:11;;;;;;;;;;;;;;;21.60;45.00;101937.28;5010055;28;4236;-67
2023/05/30 07:16:37;;;;;;;;;;;;;;;21.57;44.96;101938.53;5005431;28;4032;-67
2023/05/30 07:19:05;;;;;;;;;;;;;;;21.57;44.73;101937.78;5005085;28;4032;-67
2023/05/30 07:21:36;;;;;;;;;;;;;;;21.53;44.62;101939.06;5011783;28;4204;-67
2023/05/30 07:24:03;;;;;;;;;;;;;;;21.52;44.32;101939.69;5007845;28;4457;-67
2023/05/30 07:26:29;;;;;;;;;;;;;;;21.52;44.02;101939.69;5008710;28;4037;-66
2023/05/30 07:28:57;;;;;;;;;;;;;;;21.49;43.91;101938.81;5005162;28;4570;-66
2023/05/30 07:31:23;;;;;;;;;;;;;;;21.50;43.88;101945.31;5009137;28;4152;-69
2023/05/30 07:33:49;;;;;;;;;;;;;;;21.52;44.00;101948.31;5014052;28;5016;-68
2023/05/30 07:36:16;;;;;;;;;;;;;;;21.55;43.96;101938.41;5002367;28;4195;-68
2023/05/30 07:38:42;;;;;;;;;;;;;;;21.61;44.11;101950.31;5009505;28;3962;-68
2023/05/30 07:41:09;;;;;;;;;;;;;;;21.63;44.07;101947.53;5004958;28;5042;-68
2023/05/30 07:43:35;;;;;;;;;;;;;;;21.65;43.80;101949.81;5009052;28;4027;-68
2023/05/30 07:46:02;;;;;;;;;;;;;;;21.34;43.02;101940.06;5003705;28;4460;-67
2023/05/30 07:48:28;;;;;;;;;;;;;;;20.99;41.21;101945.13;5007297;28;4215;-68
2023/05/30 07:50:55;;;;;;;;;;;;;;;20.85;39.66;101947.91;5007786;28;4066;-67
2023/05/30 07:53:21;;;;;;;;;;;;;;;20.79;38.51;101953.28;5005504;28;3953;-68
2023/05/30 07:55:48;;;;;;;;;;;;;;;20.73;38.62;101941.38;5003244;28;4028;-68
2023/05/30 07:58:14;;;;;;;;;;;;;;;20.83;38.46;101942.75;5008768;28;4036;-69
2023/05/30 08:00:41;;;;;;;;;;;;;;;20.92;38.49;101952.66;5008067;28;3925;-67
2023/05/30 08:03:07;;;;;;;;;;;;;;;20.70;37.88;101949.13;5007295;28;4145;-67
2023/05/30 08:05:34;;;;;;;;;;;;;;;20.78;37.68;101943.16;5009723;28;4286;-67
2023/05/30 08:08:00;;;;;;;;;;;;;;;20.86;37.67;101950.13;5006257;28;5090;-68
2023/05/30 08:10:27;;;;;;;;;;;;;;;21.11;38.33;101948.75;5006749;28;4212;-67
2023/05/30 08:12:53;;;;;;;;;;;;;;;21.24;38.54;101942.34;5009773;28;4106;-68
2023/05/30 08:15:19;;;;;;;;;;;;;;;21.32;39.01;101942.81;5006841;28;4150;-68
2023/05/30 08:17:46;;;;;;;;;;;;;;;21.38;40.08;101944.59;5008402;28;4155;-67
2023/05/30 08:20:12;;;;;;;;;;;;;;;21.42;40.15;101944.84;5003708;28;4058;-67
2023/05/30 08:22:39;;;;;;;;;;;;;;;21.46;41.22;101933.56;5003883;28;4028;-67
2023/05/30 08:25:07;;;;;;;;;;;;;;;21.48;41.43;101948.09;5009271;28;4187;-68
2023/05/30 08:27:34;;;;;;;;;;;;;;;21.51;41.76;101935.31;5005738;28;4355;-68
2023/05/30 08:30:01;;;;;;;;;;;;;;;21.52;41.74;101925.28;5005097;28;4005;-68
2023/05/30 08:32:27;;;;;;;;;;;;;;;21.53;42.26;101941.94;5005791;28;4133;-67
2023/05/30 08:34:54;;;;;;;;;;;;;;;21.55;42.29;101935.53;5004992;28;4126;-68
2023/05/30 08:37:21;;;;;;;;;;;;;;;21.56;42.31;101942.81;5005482;28;4035;-67
2023/05/30 08:39:47;;;;;;;;;;;;;;;21.56;42.69;101937.03;5006718;28;4044;-67
2023/05/30 08:42:13;;;;;;;;;;;;;;;21.55;42.83;101935.53;5005876;28;4130;-67
2023/05/30 08:44:40;;;;;;;;;;;;;;;21.60;43.07;101945.16;5008248;28;4319;-67
2023/05/30 08:47:11;;;;;;;;;;;;;;;21.61;43.26;101938.78;5003137;28;4305;-69
2023/05/30 08:49:40;;;;;;;;;;;;;;;21.61;43.30;101933.00;4992081;28;4503;-68
2023/05/30 08:52:06;;;;;;;;;;;;;;;21.60;43.51;101934.41;5002086;28;4126;-67
2023/05/30 08:54:36;;;;;;;;;;;;;;;21.60;43.44;101940.16;5009527;28;3994;-68
2023/05/30 08:57:10;;;;;;;;;;;;;;;21.62;43.63;101940.25;5003448;28;4130;-68
2023/05/30 08:59:37;;;;;;;;;;;;;;;21.66;43.51;101940.50;5006896;28;5017;-67
2023/05/30 09:02:03;;;;;;;;;;;;;;;21.64;43.60;101931.72;5004291;28;4893;-69
2023/05/30 09:04:30;;;;;;;;;;;;;;;21.67;43.72;101936.25;5005078;28;3913;-68
2023/05/30 09:06:57;;;;;;;;;;;;;;;21.69;43.87;101941.38;5007904;28;4011;-68
2023/05/30 09:09:23;;;;;;;;;;;;;;;21.67;43.71;101935.47;5010280;28;4082;-68
2023/05/30 09:11:50;;;;;;;;;;;;;;;21.67;43.90;101933.38;5006000;28;4060;-68
2023/05/30 09:14:17;;;;;;;;;;;;;;;21.67;44.07;101929.72;5011007;28;4103;-68
2023/05/30 09:16:43;;;;;;;;;;;;;;;21.66;43.92;101928.97;5011568;28;4270;-68
2023/05/30 09:19:10;;;;;;;;;;;;;;;21.68;43.99;101931.97;5012043;28;4139;-67
2023/05/30 09:21:36;;;;;;;;;;;;;;;21.68;44.16;101940.63;5007017;28;4002;-68
2023/05/30 09:24:04;;;;;;;;;;;;;;;21.67;44.12;101942.03;5015933;28;4127;-67
2023/05/30 09:26:32;;;;;;;;;;;;;;;21.68;44.29;101949.28;5015028;28;4089;-68
2023/05/30 09:29:11;;;;;;;;;;;;;;;21.69;44.23;101945.03;5005929;28;4294;-67
2023/05/30 09:31:37;;;;;;;;;;;;;;;21.69;44.15;101939.25;5008971;28;4146;-67
2023/05/30 09:34:05;;;;;;;;;;;;;;;21.70;44.12;101940.75;5004126;28;4015;-67
2023/05/30 09:36:32;;;;;;;;;;;;;;;21.71;44.35;101941.50;5015016;28;4104;-67
2023/05/30 09:38:59;;;;;;;;;;;;;;;21.71;44.32;101948.00;5007840;28;5049;-67
2023/05/30 09:41:26;;;;;;;;;;;;;;;21.73;44.24;101944.50;5007428;28;4478;-67
2023/05/30 09:43:53;;;;;;;;;;;;;;;21.72;44.17;101949.50;5015697;28;4531;-67
2023/05/30 09:46:21;;;;;;;;;;;;;;;21.73;44.21;101944.50;5007211;28;4385;-67
2023/05/30 09:48:48;;;;;;;;;;;;;;;21.74;44.40;101941.00;5009649;28;4133;-67
2023/05/30 09:51:14;;;;;;;;;;;;;;;21.74;44.19;101943.88;5011211;28;4141;-67
2023/05/30 09:53:52;;;;;;;;;;;;;;;21.76;44.30;101940.34;5010952;28;4161;-67
2023/05/30 09:56:19;;;;;;;;;;;;;;;21.76;44.47;101943.22;5015579;28;4166;-67
2023/05/30 09:58:45;;;;;;;;;;;;;;;21.74;44.26;101941.00;5015670;28;4109;-67
2023/05/30 10:01:14;;;;;;;;;;;;;;;21.77;44.35;101944.00;5011184;28;4082;-66
2023/05/30 10:03:41;;;;;;;;;;;;;;;21.78;44.28;101957.00;5008037;28;4600;-67
2023/05/30 10:06:11;;;;;;;;;;;;;;;21.75;44.35;101951.13;5010836;28;4767;-66
2023/05/30 10:08:37;;;;;;;;;;;;;;;21.77;44.36;101944.00;5010639;28;3941;-67
2023/05/30 10:11:04;;;;;;;;;;;;;;;21.78;44.47;101934.69;5010273;28;4401;-67
2023/05/30 10:13:30;;;;;;;;;;;;;;;21.79;44.43;101939.09;5013529;28;4257;-67
2023/05/30 10:15:56;;;;;;;;;;;;;;;21.79;44.43;101947.00;5011945;28;4041;-67
2023/05/30 10:18:23;;;;;;;;;;;;;;;21.80;44.39;101948.47;5013787;28;4882;-67
2023/05/30 10:20:50;;;;;;;;;;;;;;;21.82;44.38;101942.84;5008737;28;4291;-67
2023/05/30 10:23:16;;;;;;;;;;;;;;;21.81;44.44;101944.22;5008744;28;4320;-67
2023/05/30 10:25:46;;;;;;;;;;;;;;;21.82;44.59;101939.94;5014389;28;4157;-67
2023/05/30 10:28:18;;;;;;;;;;;;;;;21.83;44.71;101938.56;5011374;28;4092;-67
2023/05/30 10:30:44;;;;;;;;;;;;;;;21.82;44.60;101939.94;5014929;28;4015;-67
2023/05/30 10:33:11;;;;;;;;;;;;;;;21.84;44.37;101937.19;5014217;28;4252;-66
2023/05/30 10:35:37;;;;;;;;;;;;;;;21.81;44.70;101936.31;5007809;28;3994;-67
2023/05/30 10:38:04;;;;;;;;;;;;;;;21.83;44.68;101935.66;5008142;28;4136;-67
2023/05/30 10:40:45;;;;;;;;;;;;;;;21.82;44.57;101931.31;5013795;28;4230;-67
2023/05/30 10:43:11;;;;;;;;;;;;;;;21.84;44.74;101931.41;5009624;28;4098;-67
2023/05/30 10:45:47;;;;;;;;;;;;;;;21.87;44.49;101935.91;5011984;28;3975;-67
2023/05/30 10:48:25;;;;;;;;;;;;;;;21.88;44.56;101938.16;5008830;28;4501;-66
2023/05/30 10:50:53;;;;;;;;;;;;;;;21.88;44.73;101938.16;5013653;28;4221;-67
2023/05/30 10:53:20;;;;;;;;;;;;;;;21.88;44.84;101937.44;5008314;28;4087;-67
2023/05/30 10:55:47;;;;;;;;;;;;;;;21.89;44.66;101938.91;5007365;28;4206;-67
2023/05/30 10:58:32;;;;;;;;;;;;;;;21.89;44.66;101933.88;5009439;28;4253;-67
2023/05/30 11:01:19;;;;;;;;;;;;;;;21.89;44.68;101921.59;5010894;28;4267;-67
2023/05/30 11:03:46;;;;;;;;;;;;;;;21.88;44.61;101925.88;5009344;28;3932;-67
2023/05/30 11:06:13;;;;;;;;;;;;;;;21.89;44.88;101910.81;5012497;28;4136;-67
2023/05/30 11:08:40;;;;;;;;;;;;;;;21.91;44.55;101913.06;5010592;28;4183;-67
2023/05/30 11:11:16;;;;;;;;;;;;;;;21.92;44.67;101920.34;5009417;28;4165;-67
2023/05/30 11:13:49;;;;;;;;;;;;;;;21.91;44.94;101921.72;5009370;28;4846;-68
2023/05/30 11:16:22;;;;;;;;;;;;;;;21.91;44.81;101922.47;5008750;28;4147;-68
2023/05/30 11:18:55;;;;;;;;;;;;;;;21.91;44.99;101916.69;5017897;28;4105;-68
2023/05/30 11:21:41;;;;;;;;;;;;;;;21.94;44.65;101917.56;5010296;28;4132;-68
2023/05/30 11:24:07;;;;;;;;;;;;;;;21.92;44.89;101921.09;5012958;28;4354;-68
2023/05/30 11:26:52;;;;;;;;;;;;;;;21.92;45.03;101926.09;5010406;28;4014;-67
2023/05/30 11:29:28;;;;;;;;;;;;;;;21.94;45.14;101923.34;5007557;28;4282;-68
2023/05/30 11:31:54;;;;;;;;;;;;;;;21.96;44.79;101926.34;5011321;28;4207;-67
2023/05/30 11:34:21;;;;;;;;;;;;;;;21.94;45.17;101917.56;5008573;28;5275;-67
2023/05/30 11:36:48;;;;;;;;;;;;;;;21.96;44.77;101926.34;5006035;28;3949;-67
2023/05/30 11:39:15;;;;;;;;;;;;;;;21.95;44.89;101928.47;5011406;28;4100;-68
2023/05/30 11:41:42;;;;;;;;;;;;;;;21.98;44.84;101911.28;5011144;28;4126;-68
2023/05/30 11:44:08;;;;;;;;;;;;;;;21.96;45.12;101903.25;5008988;28;4189;-68
2023/05/30 11:46:35;;;;;;;;;;;;;;;21.97;44.90;101922.09;5007284;28;4069;-68
2023/05/30 11:49:04;;;;;;;;;;;;;;;21.97;44.82;101910.53;5010202;28;4136;-67
2023/05/30 11:51:31;;;;;;;;;;;;;;;21.99;44.77;101919.31;5010472;28;4013;-67
2023/05/30 11:53:58;;;;;;;;;;;;;;;21.96;44.97;101918.44;5009263;28;4092;-67
2023/05/30 11:56:31;;;;;;;;;;;;;;;21.98;45.03;101906.25;5005727;28;4189;-68
2023/05/30 11:58:57;;;;;;;;;;;;;;;22.02;44.97;101911.53;5008535;28;4161;-67
2023/05/30 12:01:25;;;;;;;;;;;;;;;22.03;45.14;101908.00;5009119;28;4180;-67
2023/05/30 12:03:52;;;;;;;;;;;;;;;22.02;44.95;101892.06;5004640;28;4056;-70
2023/05/30 12:06:18;;;;;;;;;;;;;;;22.05;44.85;101899.44;5004277;28;4548;-66
2023/05/30 12:08:48;;;;;;;;;;;;;;;22.04;45.31;101905.88;5008624;28;4002;-66
2023/05/30 12:11:14;;;;;;;;;;;;;;;22.05;45.09;101913.88;5009092;28;5354;-65
2023/05/30 12:13:41;;;;;;;;;;;;;;;22.05;45.37;101904.47;5007256;28;4120;-66
2023/05/30 12:16:08;;;;;;;;;;;;;;;22.01;45.24;101907.88;5001064;28;4183;-65
2023/05/30 12:18:35;;;;;;;;;;;;;;;22.05;45.16;101904.47;4998727;28;3983;-67
2023/05/30 12:21:02;;;;;;;;;;;;;;;22.06;45.27;101900.97;5006004;28;4353;-66
2023/05/30 12:23:29;;;;;;;;;;;;;;;22.06;45.31;101900.19;5005239;28;4004;-65
2023/05/30 12:25:55;;;;;;;;;;;;;;;22.07;45.46;101914.00;5005532;28;4169;-65
2023/05/30 12:28:22;;;;;;;;;;;;;;;22.05;45.68;101902.34;5005039;28;4296;-65
2023/05/30 12:30:51;;;;;;;;;;;;;;;22.06;45.55;101900.97;5005671;28;4160;-72
2023/05/30 12:33:18;;;;;;;;;;;;;;;22.09;45.74;101905.44;5007548;28;4271;-73
2023/05/30 12:35:45;;;;;;;;;;;;;;;22.08;45.78;101911.84;5006583;28;4207;-66
2023/05/30 12:38:12;;;;;;;;;;;;;;;22.06;46.10;101905.97;5006346;28;4070;-66
2023/05/30 12:40:43;;;;;;;;;;;;;;;22.05;46.02;101905.22;5003620;28;3986;-66
2023/05/30 12:43:11;;;;;;;;;;;;;;;22.05;46.07;101905.22;5007718;28;4149;-65
2023/05/30 12:45:37;;;;;;;;;;;;;;;22.06;46.36;101903.84;5005077;28;4026;-66
2023/05/30 12:48:04;;;;;;;;;;;;;;;22.07;46.54;101911.09;5006452;28;4132;-65
2023/05/30 12:50:31;;;;;;;;;;;;;;;22.11;46.86;101911.34;5009786;28;4172;-65
2023/05/30 12:52:57;;;;;;;;;;;;;;;22.10;46.68;101906.94;5006254;28;4290;-67